Friday, April 18, 2014
20:45 UTC
  |  Log In   |  Register Free
Airport Search:

Indiana County/Jimmy Stewart Fld/ Airport
(KIDI)

Indiana County/Jimmy Stewart Fld/ Airport Diagram
No Airport Diagram Available

FAA data valid effective April 3, 2014 until May 29, 2014 (unless otherwise noted).

 
 
 
 
 
 
 
 
 
 
 
 
 
 

Current Aviation Weather for Indiana County/Jimmy Stewart Fld/ Airport (KIDI)

The most recent METAR observation for KIDI was updated at: 1955 UTC
METAR Summary (Translated METAR)
KIDI
181955Z AUTO 28007KT 10SM CLR 18/M02 A3023 RMK AO2
KJST
(22.7 nm SE from KIDI)
181954Z AUTO 17008KT 10SM CLR 16/M01 A3023 RMK AO2 SLP245 T01561006
TAF Summary (Translated TAF)
KJST
(22.7 nm SE from KIDI)
181729Z 1818/1918 16005KT P6SM BKN150 FM182300 28006KT P6SM BKN250 FM190900 33005KT P6SM SKC
KLBE
(25.5 nm SW from KIDI)
181814Z 1818/1918 19006KT P6SM BKN150 FM190000 29007KT P6SM BKN070 FM190300 34005KT P6SM SKC
  Airport Weather Conditions for KIDI

 Current Weather at IDI
64° F
Fair
West winds at 9.2 mph
IDI NOAA Radar

Pressure: 30.23 in
Humidity: 26%
Wind: West at 9.2 MPH (8 KT)
Dew Point: 28.4°F
Visibility: 10.00 mi


Airport Weather Forecast for KIDI

Translated METAR and TAF for KIDI
Translated METAR for KIDI (2045 UTC 18 April 2014)
found at http://aviationweather.gov/adds/metars/
 
METAR text: KIDI 182035Z AUTO 25008KT 220V280 10SM CLR 19/M02 A3021 RMK AO2
Conditions at: KIDI (INDIANA/STEWART , PA, US) observed 2035 UTC 18 April 2014
Temperature: 19.0°C (66°F)
Dewpoint: -2.0°C (28°F) [RH = 24%]
Pressure (altimeter): 30.21 inches Hg (1023.1 mb)
Winds: from the WSW (250 degrees) at 9 MPH (8 knots; 4.2 m/s)
Visibility: 10 or more miles (16+ km)
Ceiling: at least 12,000 feet AGL
Clouds: sky clear below 12,000 feet AGL
Weather: automated observation with no human augmentation;
there may or may not be significant weather present at this time
Translated TAF for KIDI

There is no translated TAF available for this airport

Find All Airport Services Find A Hotel Find A Rental Car Find A Golf Course Find A Restaurant $100 Hamburger



FBO's on the Field
FBO Company Facility Photos Services Transportation Aviation Fuel Prices: Prices include tax
Catering Weather Repair Courtesy Rental Type 100LL JetA JetA+ MOGAS 8087
 
Indiana County Jimmy Stewart Airport

Currently rated 5 by 1 person
FS:Phillips66
Last Updated: Apr-16
Login to update fuel prices
SS:
Contact Indiana County Jimmy Stewart AirportMore FBO Information
 
Add another FBO Facility Photos Catering Weather Repair Courtesy Rental Type 100LL JetA JetA+ MOGAS 8087
Services Transportation Aviation Fuel Prices: Prices include tax


GlobalAir.com Airport Resource Center model-print
model-print
model-print
model-print